createdAt,value
2023-03-01T00:01:35.085Z,102199.06
2023-03-01T00:06:37.515Z,102196.69
2023-03-01T00:11:36.617Z,102193.72
2023-03-01T00:16:40.840Z,102186.34
2023-03-01T00:21:41.126Z,102190.81
2023-03-01T00:26:41.866Z,102194.19
2023-03-01T00:31:42.214Z,102191.81
2023-03-01T00:36:45.896Z,102190.41
2023-03-01T00:41:46.764Z,102181.81
2023-03-01T00:46:47.392Z,102185.59
2023-03-01T00:51:50.127Z,102172.66
2023-03-01T00:56:53.002Z,102166.38
2023-03-01T01:01:54.764Z,102168.31
2023-03-01T01:06:55.254Z,102161.84
2023-03-01T01:11:56.015Z,102158.16
2023-03-01T01:16:55.720Z,102140.81
2023-03-01T01:21:59.200Z,102127.00
2023-03-01T01:27:04.411Z,102129.16
2023-03-01T01:32:02.926Z,102124.63
2023-03-01T01:37:05.379Z,102113.97
2023-03-01T01:42:04.602Z,102100.38
2023-03-01T01:47:12.205Z,102099.81
2023-03-01T01:52:32.388Z,102101.75
2023-03-01T01:57:37.290Z,102100.63
2023-03-01T02:02:35.530Z,102094.72
2023-03-01T02:07:36.523Z,102085.16
2023-03-01T02:12:40.617Z,102087.38
2023-03-01T02:17:42.118Z,102079.91
2023-03-01T02:22:43.570Z,102068.06
2023-03-01T02:27:51.028Z,102069.88
2023-03-01T02:32:54.193Z,102074.00
2023-03-01T02:37:58.223Z,102067.91
2023-03-01T02:42:56.895Z,102068.50
2023-03-01T02:47:59.264Z,102073.72
2023-03-01T02:53:04.978Z,102080.44
2023-03-01T02:58:11.800Z,102077.63
2023-03-01T03:03:14.722Z,102082.88
2023-03-01T03:08:14.416Z,102087.41
2023-03-01T03:13:13.017Z,102080.78
2023-03-01T03:18:13.600Z,102076.84
2023-03-01T03:23:12.819Z,102080.91
2023-03-01T03:28:12.198Z,102080.75
2023-03-01T03:33:14.051Z,102083.22
2023-03-01T03:38:16.797Z,102079.75
2023-03-01T03:43:18.997Z,102079.03
2023-03-01T03:48:18.174Z,102077.25
2023-03-01T03:53:15.532Z,102087.94
2023-03-01T03:58:13.728Z,102087.84
2023-03-01T04:03:12.488Z,102089.53
2023-03-01T04:08:24.663Z,102092.31
2023-03-01T04:13:26.323Z,102083.44
2023-03-01T04:18:30.073Z,102091.66
2023-03-01T04:23:47.416Z,102084.41
2023-03-01T04:28:49.696Z,102094.06
2023-03-01T04:33:54.122Z,102105.34
2023-03-01T04:38:51.612Z,102100.44
2023-03-01T04:43:53.921Z,102090.78
2023-03-01T04:48:57.869Z,102083.44
2023-03-01T04:53:56.720Z,102083.09
2023-03-01T04:58:57.635Z,102087.03
2023-03-01T05:03:57.138Z,102090.78
2023-03-01T05:08:55.701Z,102089.34
2023-03-01T05:13:57.188Z,102092.06
2023-03-01T05:18:59.217Z,102088.22
2023-03-01T05:23:57.058Z,102088.09
2023-03-01T05:29:02.631Z,102096.41
2023-03-01T05:34:05.743Z,102095.09
2023-03-01T05:39:04.848Z,102101.97
2023-03-01T05:44:17.057Z,102090.34
2023-03-01T05:49:17.342Z,102091.25
2023-03-01T05:54:18.947Z,102091.25
2023-03-01T05:59:19.640Z,102085.53
2023-03-01T06:04:18.952Z,102096.03
2023-03-01T06:09:32.778Z,102091.06
2023-03-01T06:14:41.363Z,102102.78
2023-03-01T06:19:40.986Z,102102.09
2023-03-01T06:24:41.086Z,102100.38
2023-03-01T06:29:43.991Z,102095.63
2023-03-01T06:34:46.385Z,102094.19
2023-03-01T06:39:45.260Z,102098.31
2023-03-01T06:44:47.582Z,102096.09
2023-03-01T06:49:46.921Z,102100.06
2023-03-01T06:54:50.560Z,102102.50
2023-03-01T06:59:50.970Z,102099.84
2023-03-01T07:04:55.598Z,102098.22
2023-03-01T07:09:56.920Z,102098.34
2023-03-01T07:14:57.760Z,102096.47
2023-03-01T07:19:56.098Z,102095.09
2023-03-01T07:24:55.754Z,102104.06
2023-03-01T07:29:55.595Z,102097.53
2023-03-01T07:34:58.492Z,102093.50
2023-03-01T07:40:02.580Z,102098.53
2023-03-01T07:45:00.396Z,102110.16
2023-03-01T07:50:04.540Z,102109.25
2023-03-01T07:55:02.896Z,102109.56
2023-03-01T08:00:00.609Z,102107.91
2023-03-01T08:04:58.096Z,102103.59
2023-03-01T08:09:57.164Z,102106.63
2023-03-01T08:14:57.213Z,102110.19
2023-03-01T08:19:55.522Z,102105.84
2023-03-01T08:24:58.778Z,102110.69
2023-03-01T08:29:59.581Z,102111.81
2023-03-01T08:34:58.491Z,102103.75
2023-03-01T08:39:56.734Z,102095.75
2023-03-01T08:44:55.191Z,102097.25
2023-03-01T08:49:55.692Z,102094.78
2023-03-01T08:54:55.406Z,102101.72
2023-03-01T08:59:54.209Z,102093.50
2023-03-01T09:04:54.404Z,102092.19
2023-03-01T09:09:54.621Z,102090.91
2023-03-01T09:14:53.942Z,102086.78
2023-03-01T09:19:52.842Z,102082.56
2023-03-01T09:25:18.680Z,102079.06
2023-03-01T09:30:18.323Z,102074.63
2023-03-01T09:35:17.799Z,102073.78
2023-03-01T09:40:20.908Z,102073.28
2023-03-01T09:45:33.832Z,102071.78
2023-03-01T09:50:39.452Z,102076.03
2023-03-01T09:55:43.708Z,102077.03
2023-03-01T10:00:46.516Z,102062.69
2023-03-01T10:05:47.784Z,102056.03
2023-03-01T10:10:46.617Z,102047.66
2023-03-01T10:15:46.585Z,102048.00
2023-03-01T10:20:57.463Z,102059.38
2023-03-01T10:26:04.095Z,102042.16
2023-03-01T10:31:06.907Z,102039.72
2023-03-01T10:36:17.413Z,102040.00
2023-03-01T10:41:38.299Z,102032.66
2023-03-01T10:46:40.177Z,102031.31
2023-03-01T10:51:43.979Z,102018.25
2023-03-01T10:57:12.590Z,102008.97
2023-03-01T11:02:36.479Z,101999.00
2023-03-01T11:07:37.299Z,101998.09
2023-03-01T11:12:37.013Z,101984.03
2023-03-01T11:17:54.610Z,101988.41
2023-03-01T11:23:00.218Z,101983.03
2023-03-01T11:28:01.269Z,101969.72
2023-03-01T11:33:18.644Z,101967.16
2023-03-01T11:38:26.901Z,101954.66
2023-03-01T11:43:26.669Z,101948.47
2023-03-01T11:48:48.953Z,101941.84
2023-03-01T11:54:15.350Z,101938.69
2023-03-01T11:59:18.547Z,101933.69
2023-03-01T12:04:25.681Z,101920.47
2023-03-01T12:09:37.181Z,101919.47
2023-03-01T12:14:37.796Z,101910.66
2023-03-01T12:19:46.303Z,101912.59
2023-03-01T12:24:53.745Z,101912.41
2023-03-01T12:30:12.408Z,101906.84
2023-03-01T12:35:17.605Z,101914.22
2023-03-01T12:40:39.352Z,101919.09
2023-03-01T12:45:38.900Z,101917.00
2023-03-01T12:50:43.924Z,101917.16
2023-03-01T12:55:43.058Z,101903.22
2023-03-01T13:00:52.498Z,101902.09
2023-03-01T13:05:58.095Z,101903.22
2023-03-01T13:11:03.334Z,101903.94
2023-03-01T13:16:22.552Z,101887.50
2023-03-01T13:21:36.030Z,101882.81
2023-03-01T13:26:38.733Z,101885.97
2023-03-01T13:31:42.175Z,101888.47
2023-03-01T13:36:52.703Z,101888.69
2023-03-01T13:41:58.784Z,101882.19
2023-03-01T13:47:11.190Z,101883.34
2023-03-01T13:52:34.865Z,101889.25
2023-03-01T13:57:40.378Z,101877.91
2023-03-01T14:02:41.231Z,101882.41
2023-03-01T14:07:43.656Z,101864.06
2023-03-01T14:13:11.343Z,101880.03
2023-03-01T14:18:23.786Z,101876.16
2023-03-01T14:23:23.789Z,101876.63
2023-03-01T14:28:38.433Z,101873.78
2023-03-01T14:33:43.814Z,101875.16
2023-03-01T14:38:49.190Z,101876.63
2023-03-01T14:44:05.142Z,101873.97
2023-03-01T14:49:18.362Z,101860.56
2023-03-01T14:54:51.079Z,101865.97
2023-03-01T14:59:55.658Z,101866.09
2023-03-01T15:05:31.601Z,101849.28
2023-03-01T15:10:50.427Z,101844.97
2023-03-01T15:15:55.314Z,101846.31
2023-03-01T15:20:54.064Z,101847.94
2023-03-01T15:25:58.443Z,101853.16
2023-03-01T15:31:14.227Z,101867.81
2023-03-01T15:36:35.152Z,101856.50
2023-03-01T15:41:38.990Z,101854.78
2023-03-01T15:46:50.724Z,101854.72
2023-03-01T15:51:53.276Z,101853.75
2023-03-01T15:56:55.340Z,101859.22
2023-03-01T16:01:56.000Z,101855.88
2023-03-01T16:06:55.364Z,101855.22
2023-03-01T16:11:55.016Z,101866.56
2023-03-01T16:16:57.510Z,101867.59
2023-03-01T16:21:57.128Z,101883.72
2023-03-01T16:27:00.817Z,101881.25
2023-03-01T16:32:06.296Z,101886.38
2023-03-01T16:37:11.808Z,101900.72
2023-03-01T16:42:10.219Z,101908.41
2023-03-01T16:47:08.461Z,101911.53
2023-03-01T16:52:12.823Z,101917.09
2023-03-01T16:57:11.989Z,101912.59
2023-03-01T17:02:13.854Z,101922.09
2023-03-01T17:07:15.391Z,101923.16
2023-03-01T17:12:16.806Z,101910.34
2023-03-01T17:17:16.184Z,101915.97
2023-03-01T17:22:21.867Z,101910.44
2023-03-01T17:27:26.831Z,101919.22
2023-03-01T17:32:26.984Z,101909.16
2023-03-01T17:37:26.949Z,101909.03
2023-03-01T17:42:25.542Z,101897.94
2023-03-01T17:47:26.862Z,101895.25
2023-03-01T17:52:26.780Z,101900.72
2023-03-01T17:57:39.599Z,101898.34
2023-03-01T18:02:47.924Z,101894.50
2023-03-01T18:07:50.912Z,101898.16
2023-03-01T18:12:49.838Z,101888.84
2023-03-01T18:17:57.848Z,101888.84
2023-03-01T18:22:55.542Z,101889.53
2023-03-01T18:28:04.151Z,101897.66
2023-03-01T18:33:08.126Z,101892.34
2023-03-01T18:38:08.759Z,101893.78
2023-03-01T18:43:17.496Z,101899.69
2023-03-01T18:48:18.744Z,101896.94
2023-03-01T18:53:16.114Z,101892.84
2023-03-01T18:58:16.060Z,101879.94
2023-03-01T19:03:14.378Z,101878.47
2023-03-01T19:08:15.690Z,101877.53
2023-03-01T19:13:13.997Z,101882.06
2023-03-01T19:18:14.364Z,101885.00
2023-03-01T19:23:15.926Z,101892.78
2023-03-01T19:28:17.013Z,101895.25
2023-03-01T19:33:15.883Z,101906.56
2023-03-01T19:38:21.013Z,101896.19
2023-03-01T19:43:21.996Z,101894.78
2023-03-01T19:48:21.990Z,101889.50
2023-03-01T19:53:24.254Z,101890.78
2023-03-01T19:58:40.261Z,101883.22
2023-03-01T20:03:46.695Z,101891.53
2023-03-01T20:08:46.817Z,101892.78
2023-03-01T20:13:48.684Z,101906.34
2023-03-01T20:18:47.807Z,101907.38
2023-03-01T20:23:47.714Z,101903.75
2023-03-01T20:28:47.386Z,101912.56
2023-03-01T20:33:51.720Z,101900.63
2023-03-01T20:38:55.108Z,101898.78
2023-03-01T20:43:57.107Z,101902.53
2023-03-01T20:48:58.169Z,101903.97
2023-03-01T20:53:59.688Z,101900.63
2023-03-01T20:59:01.258Z,101900.63
2023-03-01T21:04:02.623Z,101900.34
2023-03-01T21:09:00.430Z,101902.28
2023-03-01T21:14:01.702Z,101896.50
2023-03-01T21:19:03.009Z,101898.47
2023-03-01T21:24:03.742Z,101898.38
2023-03-01T21:29:06.353Z,101897.00
2023-03-01T21:34:05.497Z,101904.81
2023-03-01T21:39:08.073Z,101901.06
2023-03-01T21:44:37.978Z,101909.41
2023-03-01T21:49:39.275Z,101894.41
2023-03-01T21:54:41.140Z,101895.03
2023-03-01T21:59:40.616Z,101893.00
2023-03-01T22:04:47.341Z,101898.34
2023-03-01T22:09:58.177Z,101898.16
2023-03-01T22:14:59.042Z,101907.94
2023-03-01T22:20:11.804Z,101911.44
2023-03-01T22:25:12.912Z,101915.91
2023-03-01T22:30:22.379Z,101913.72
2023-03-01T22:35:33.479Z,101920.38
2023-03-01T22:40:35.811Z,101921.59
2023-03-01T22:45:34.864Z,101914.09
2023-03-01T22:50:37.468Z,101912.44
2023-03-01T22:55:38.965Z,101904.34
2023-03-01T23:00:39.961Z,101905.19
2023-03-01T23:05:37.862Z,101900.47
2023-03-01T23:10:42.939Z,101903.16
2023-03-01T23:15:45.601Z,101901.31
2023-03-01T23:20:47.309Z,101896.03
2023-03-01T23:25:59.258Z,101897.38
2023-03-01T23:31:01.425Z,101906.97
2023-03-01T23:36:02.980Z,101912.00
2023-03-01T23:41:05.366Z,101906.81
2023-03-01T23:46:08.532Z,101906.66
2023-03-01T23:51:10.003Z,101909.47
2023-03-01T23:56:10.728Z,101912.69
